Time;durP1;ratioP1;P1;durP2;ratioP2;P2;SDS_P1;SDS_P2;PMS_P1;PMS_P2;Temp;Humidity;BMP_temperature;BMP_pressure;BME280_temperature;BME280_humidity;BME280_pressure;Samples;Min_cycle;Max_cycle;Signal;HPM_P1;HPM_P2
2021/10/26 00:00:08;;;;;;;13.48;3.30;;;9.00;99.90;;;;;;5071085;28;20028;-61
2021/10/26 00:02:35;;;;;;;11.18;2.90;;;9.00;99.90;;;;;;5070826;28;20059;-60
2021/10/26 00:05:02;;;;;;;17.25;2.95;;;9.10;99.90;;;;;;5058604;28;20510;-61
2021/10/26 00:07:28;;;;;;;11.35;2.90;;;9.10;99.90;;;;;;5068549;28;20047;-61
2021/10/26 00:09:54;;;;;;;12.50;3.45;;;9.00;99.90;;;;;;5063447;28;20035;-61
2021/10/26 00:12:19;;;;;;;16.08;3.08;;;9.00;99.90;;;;;;5062614;28;20028;-61
2021/10/26 00:14:45;;;;;;;8.43;3.13;;;8.90;99.90;;;;;;5064897;28;20463;-61
2021/10/26 00:17:11;;;;;;;12.27;3.25;;;8.90;99.90;;;;;;5058590;28;20041;-62
2021/10/26 00:19:37;;;;;;;12.68;3.42;;;8.90;99.90;;;;;;5064273;28;20382;-60
2021/10/26 00:22:03;;;;;;;12.50;3.40;;;9.00;99.90;;;;;;5064422;28;20037;-61
2021/10/26 00:24:29;;;;;;;14.13;3.25;;;9.00;99.90;;;;;;5054641;28;20479;-60
2021/10/26 00:26:55;;;;;;;11.20;3.10;;;9.00;99.90;;;;;;5065533;28;20040;-62
2021/10/26 00:29:21;;;;;;;11.93;3.45;;;9.00;99.90;;;;;;5064187;28;20078;-61
2021/10/26 00:31:46;;;;;;;16.52;3.63;;;9.00;99.90;;;;;;5071331;28;20032;-62
2021/10/26 00:34:12;;;;;;;19.90;3.90;;;9.00;99.90;;;;;;5062866;28;20108;-61
2021/10/26 00:36:38;;;;;;;9.65;3.00;;;9.00;99.90;;;;;;5064464;28;20167;-60
2021/10/26 00:39:05;;;;;;;15.68;3.90;;;8.90;99.90;;;;;;5065876;28;20068;-62
2021/10/26 00:41:30;;;;;;;18.10;4.00;;;8.90;99.90;;;;;;5061565;28;20460;-62
2021/10/26 00:43:57;;;;;;;15.18;3.83;;;9.00;99.90;;;;;;5064044;28;20105;-62
2021/10/26 00:46:31;;;;;;;12.23;3.70;;;8.90;99.90;;;;;;5061985;28;20487;-60
2021/10/26 00:48:59;;;;;;;14.55;3.83;;;8.90;99.90;;;;;;5059198;28;20028;-60
2021/10/26 00:51:25;;;;;;;13.50;3.45;;;8.80;99.90;;;;;;5055230;28;20411;-60
2021/10/26 00:53:51;;;;;;;11.25;3.85;;;8.80;99.90;;;;;;5064675;28;20056;-60
2021/10/26 00:56:19;;;;;;;11.05;4.10;;;8.70;99.90;;;;;;5065750;28;20448;-62
2021/10/26 00:58:44;;;;;;;15.10;3.92;;;8.70;99.90;;;;;;5057570;28;20060;-60
2021/10/26 01:01:10;;;;;;;15.00;3.95;;;8.80;99.90;;;;;;5062299;28;20048;-61
2021/10/26 01:03:36;;;;;;;10.32;3.90;;;8.80;99.90;;;;;;5062344;28;20024;-61
2021/10/26 01:06:02;;;;;;;14.82;3.97;;;8.80;99.90;;;;;;5066740;28;20033;-62
2021/10/26 01:08:29;;;;;;;16.20;4.32;;;8.80;99.90;;;;;;5059757;28;20065;-61
2021/10/26 01:10:55;;;;;;;9.52;4.00;;;8.80;99.90;;;;;;5058790;28;20033;-63
2021/10/26 01:13:23;;;;;;;13.15;4.28;;;8.70;99.90;;;;;;5057593;28;20043;-60
2021/10/26 01:15:50;;;;;;;13.32;4.20;;;8.70;99.90;;;;;;5064165;28;20471;-60
2021/10/26 01:18:16;;;;;;;12.43;4.25;;;8.80;99.90;;;;;;5063594;28;20032;-60
2021/10/26 01:20:43;;;;;;;12.50;4.72;;;8.80;99.90;;;;;;5053598;28;20040;-60
2021/10/26 01:23:09;;;;;;;13.93;4.50;;;8.80;99.90;;;;;;5046985;28;20037;-61
2021/10/26 01:25:35;;;;;;;23.08;4.95;;;8.80;99.90;;;;;;5056526;28;20031;-61
2021/10/26 01:28:01;;;;;;;15.02;4.45;;;8.70;99.90;;;;;;5059310;28;20028;-61
2021/10/26 01:30:33;;;;;;;12.55;4.40;;;8.80;99.90;;;;;;5054175;28;20078;-61
2021/10/26 01:32:59;;;;;;;18.25;5.07;;;8.80;99.90;;;;;;5053556;28;20021;-60
2021/10/26 01:35:25;;;;;;;16.48;4.35;;;8.90;99.90;;;;;;5064412;28;20028;-60
2021/10/26 01:37:51;;;;;;;12.02;4.20;;;9.00;99.90;;;;;;5062328;28;20094;-61
2021/10/26 01:40:17;;;;;;;13.98;4.32;;;9.00;99.90;;;;;;5063593;28;20029;-60
2021/10/26 01:42:43;;;;;;;15.50;4.20;;;9.00;99.90;;;;;;5060498;28;20087;-64
2021/10/26 01:45:10;;;;;;;13.60;4.35;;;9.00;99.90;;;;;;5066273;28;20086;-62
2021/10/26 01:47:36;;;;;;;15.60;4.85;;;9.00;99.90;;;;;;5059266;28;20378;-59
2021/10/26 01:50:06;;;;;;;17.33;3.65;;;9.00;99.90;;;;;;5061081;28;20416;-61
2021/10/26 01:52:32;;;;;;;15.90;4.15;;;9.00;99.90;;;;;;5067457;28;20028;-60
2021/10/26 01:54:58;;;;;;;14.05;4.25;;;9.00;99.90;;;;;;5056877;28;20036;-62
2021/10/26 01:57:26;;;;;;;13.63;4.55;;;9.00;99.90;;;;;;5057356;28;20050;-61
2021/10/26 01:59:52;;;;;;;17.92;3.90;;;9.00;99.90;;;;;;5034534;28;20037;-61
2021/10/26 02:02:18;;;;;;;15.10;4.38;;;8.90;99.90;;;;;;5044346;28;20028;-61
2021/10/26 02:04:44;;;;;;;12.30;3.78;;;8.90;99.90;;;;;;5042006;28;20033;-62
2021/10/26 02:07:09;;;;;;;10.77;4.05;;;8.90;99.90;;;;;;5031750;28;20033;-62
2021/10/26 02:09:36;;;;;;;16.52;4.47;;;8.90;99.90;;;;;;5045224;28;20091;-61
2021/10/26 02:12:03;;;;;;;16.83;4.30;;;8.90;99.90;;;;;;5035808;28;20033;-61
2021/10/26 02:14:29;;;;;;;12.30;3.55;;;9.00;99.90;;;;;;5044090;28;20055;-60
2021/10/26 02:16:55;;;;;;;14.70;4.15;;;9.00;99.90;;;;;;5047526;28;20041;-64
2021/10/26 02:19:20;;;;;;;11.10;3.88;;;9.10;99.90;;;;;;5039377;28;20086;-60
2021/10/26 02:21:46;;;;;;;10.85;4.13;;;9.10;99.90;;;;;;5037880;28;20040;-60
2021/10/26 02:24:12;;;;;;;16.90;4.00;;;9.00;99.90;;;;;;5043775;28;20437;-60
2021/10/26 02:26:37;;;;;;;13.40;4.13;;;9.00;99.90;;;;;;5039615;28;20026;-61
2021/10/26 02:29:04;;;;;;;11.90;3.88;;;9.00;99.90;;;;;;5032052;28;20036;-60
2021/10/26 02:31:30;;;;;;;18.48;4.32;;;9.00;99.90;;;;;;5037169;28;20029;-61
2021/10/26 02:33:56;;;;;;;17.02;4.50;;;9.10;99.90;;;;;;5046663;28;20028;-60
2021/10/26 02:36:21;;;;;;;13.93;4.30;;;9.10;99.90;;;;;;5038479;28;20175;-60
2021/10/26 02:38:47;;;;;;;18.83;4.68;;;9.10;99.90;;;;;;5028416;28;20033;-61
2021/10/26 02:41:13;;;;;;;13.55;4.68;;;9.10;99.90;;;;;;5038890;28;20487;-60
2021/10/26 02:43:39;;;;;;;11.05;3.95;;;9.00;99.90;;;;;;5047841;28;20765;-60
2021/10/26 02:46:06;;;;;;;17.20;4.68;;;8.90;99.90;;;;;;5046146;28;20034;-61
2021/10/26 02:48:32;;;;;;;14.70;4.55;;;8.90;99.90;;;;;;5044447;28;20033;-60
2021/10/26 02:50:58;;;;;;;16.65;5.03;;;8.90;99.90;;;;;;5043167;28;20025;-61
2021/10/26 02:53:24;;;;;;;19.23;4.80;;;8.90;99.90;;;;;;5045565;28;20448;-61
2021/10/26 02:55:50;;;;;;;15.32;4.38;;;8.90;99.90;;;;;;5034621;28;20041;-60
2021/10/26 02:58:17;;;;;;;16.90;4.90;;;8.90;99.90;;;;;;5054787;28;20040;-60
2021/10/26 03:00:45;;;;;;;10.85;4.60;;;8.80;99.90;;;;;;5048681;28;20394;-60
2021/10/26 03:03:10;;;;;;;15.70;5.13;;;8.80;99.90;;;;;;5049645;28;20036;-61
2021/10/26 03:05:36;;;;;;;16.08;4.80;;;8.70;99.90;;;;;;5059685;28;20021;-61
2021/10/26 03:08:02;;;;;;;11.20;4.20;;;8.80;99.90;;;;;;5068491;28;20031;-61
2021/10/26 03:10:28;;;;;;;12.80;4.53;;;8.80;99.90;;;;;;5067107;28;20033;-60
2021/10/26 03:12:53;;;;;;;11.95;4.70;;;8.90;99.90;;;;;;5061349;28;20032;-61
2021/10/26 03:15:20;;;;;;;13.45;5.03;;;8.90;99.90;;;;;;5058060;28;20112;-60
2021/10/26 03:17:45;;;;;;;13.02;4.82;;;8.90;99.90;;;;;;5058076;28;20479;-61
2021/10/26 03:20:11;;;;;;;15.80;5.07;;;8.90;99.90;;;;;;5071332;28;20033;-60
2021/10/26 03:22:37;;;;;;;21.73;4.82;;;8.90;99.90;;;;;;5067226;28;20381;-60
2021/10/26 03:25:05;;;;;;;19.85;5.25;;;8.90;99.90;;;;;;5066763;28;20033;-60
2021/10/26 03:27:31;;;;;;;17.00;5.00;;;8.90;99.90;;;;;;5071745;28;20032;-61
2021/10/26 03:29:56;;;;;;;19.73;5.13;;;8.90;99.90;;;;;;5063889;28;20039;-59
2021/10/26 03:32:22;;;;;;;18.05;4.65;;;8.90;99.90;;;;;;5061406;28;20412;-61
2021/10/26 03:34:48;;;;;;;19.52;5.03;;;8.80;99.90;;;;;;5070209;28;20448;-61
2021/10/26 03:37:14;;;;;;;17.15;4.65;;;8.90;99.90;;;;;;5068613;28;20043;-60
2021/10/26 03:39:40;;;;;;;19.58;5.53;;;8.90;99.90;;;;;;5061524;28;20051;-60
2021/10/26 03:42:05;;;;;;;18.50;5.82;;;8.90;99.90;;;;;;5059193;28;20449;-60
2021/10/26 03:44:31;;;;;;;13.43;5.03;;;8.90;99.90;;;;;;5072799;28;20040;-61
2021/10/26 03:46:57;;;;;;;17.52;5.32;;;8.90;99.90;;;;;;5060433;28;20056;-60
2021/10/26 03:49:23;;;;;;;15.45;5.05;;;8.90;99.90;;;;;;5071320;28;20052;-60
2021/10/26 03:51:48;;;;;;;14.73;4.78;;;8.90;99.90;;;;;;5062925;28;20037;-60
2021/10/26 03:54:14;;;;;;;19.13;5.55;;;8.90;99.90;;;;;;5062451;28;20036;-59
2021/10/26 03:56:40;;;;;;;20.45;5.57;;;8.90;99.90;;;;;;5060038;28;20032;-61
2021/10/26 03:59:09;;;;;;;15.82;5.30;;;9.00;99.90;;;;;;5022674;28;20053;-60
2021/10/26 04:01:35;;;;;;;17.83;5.20;;;9.00;99.90;;;;;;5046760;28;20028;-60
2021/10/26 04:04:01;;;;;;;15.70;5.15;;;9.00;99.90;;;;;;5040371;28;20430;-61
2021/10/26 04:06:28;;;;;;;17.98;5.47;;;9.00;99.90;;;;;;5048473;28;20025;-61
2021/10/26 04:09:00;;;;;;;18.27;5.40;;;9.00;99.90;;;;;;5044844;28;20503;-60
2021/10/26 04:11:27;;;;;;;14.95;5.53;;;8.90;99.90;;;;;;5040989;28;20392;-61
2021/10/26 04:13:54;;;;;;;15.45;5.50;;;9.00;99.90;;;;;;5022240;28;20395;-63
2021/10/26 04:16:21;;;;;;;18.33;5.68;;;9.00;99.90;;;;;;5036396;28;20026;-60
2021/10/26 04:18:47;;;;;;;16.98;5.57;;;9.10;99.90;;;;;;5046477;28;20090;-61
2021/10/26 04:21:13;;;;;;;17.50;5.82;;;9.00;99.90;;;;;;5043199;28;20029;-59
2021/10/26 04:23:39;;;;;;;14.75;5.80;;;9.00;99.90;;;;;;5052752;28;20028;-62
2021/10/26 04:26:07;;;;;;;17.52;5.90;;;8.90;99.90;;;;;;5037053;28;20091;-62
2021/10/26 04:28:33;;;;;;;20.77;5.57;;;9.00;99.90;;;;;;5044847;28;20043;-63
2021/10/26 04:31:02;;;;;;;24.33;6.28;;;9.00;99.90;;;;;;5046175;28;20921;-62
2021/10/26 04:33:28;;;;;;;15.52;5.43;;;9.10;99.90;;;;;;5048881;28;20051;-63
2021/10/26 04:35:55;;;;;;;20.08;6.07;;;9.00;99.90;;;;;;5041551;28;20038;-63
2021/10/26 04:38:21;;;;;;;17.65;6.40;;;9.00;99.90;;;;;;5036155;28;20119;-62
2021/10/26 04:40:47;;;;;;;17.70;6.18;;;9.20;99.90;;;;;;5043893;28;20075;-62
2021/10/26 04:43:14;;;;;;;16.92;5.65;;;9.20;99.90;;;;;;5045414;28;20108;-63
2021/10/26 04:45:40;;;;;;;17.98;5.65;;;9.20;99.90;;;;;;5046023;28;20025;-63
2021/10/26 04:48:16;;;;;;;19.45;5.90;;;9.10;99.90;;;;;;5036107;28;20540;-63
2021/10/26 04:50:43;;;;;;;19.10;5.30;;;9.10;99.90;;;;;;5050997;28;20033;-63
2021/10/26 04:53:09;;;;;;;15.73;5.10;;;9.20;99.90;;;;;;5044622;28;20028;-63
2021/10/26 04:55:35;;;;;;;20.73;5.80;;;9.10;99.90;;;;;;5044480;28;20030;-62
2021/10/26 04:58:00;;;;;;;17.63;5.65;;;9.10;99.90;;;;;;5051855;28;20052;-61
2021/10/26 05:00:29;;;;;;;18.27;6.13;;;9.10;99.90;;;;;;5060179;28;20029;-62
2021/10/26 05:02:55;;;;;;;21.90;6.10;;;9.10;99.90;;;;;;5066053;28;20024;-62
2021/10/26 05:05:20;;;;;;;17.25;5.65;;;9.10;99.90;;;;;;5063481;28;20035;-62
2021/10/26 05:07:46;;;;;;;21.08;6.40;;;9.10;99.90;;;;;;5069840;28;20431;-63
2021/10/26 05:10:12;;;;;;;21.73;5.82;;;9.10;99.90;;;;;;5058240;28;20071;-63
2021/10/26 05:12:37;;;;;;;20.17;6.55;;;9.20;99.90;;;;;;5061440;28;20032;-63
2021/10/26 05:15:04;;;;;;;15.25;5.88;;;9.20;99.90;;;;;;5054953;28;20036;-62
2021/10/26 05:17:31;;;;;;;20.15;6.00;;;9.30;99.90;;;;;;5062272;28;20027;-63
2021/10/26 05:19:58;;;;;;;30.45;11.38;;;9.20;99.90;;;;;;5064532;28;20043;-62
2021/10/26 05:22:25;;;;;;;17.95;6.93;;;9.20;99.90;;;;;;5056524;28;20106;-62
2021/10/26 05:24:51;;;;;;;19.95;6.00;;;9.30;99.90;;;;;;5062579;28;20123;-64
2021/10/26 05:27:19;;;;;;;18.92;6.13;;;9.20;99.90;;;;;;5058062;28;20507;-63
2021/10/26 05:29:45;;;;;;;19.63;6.07;;;9.30;99.90;;;;;;5058941;28;20044;-63
2021/10/26 05:32:11;;;;;;;18.58;5.50;;;9.40;99.90;;;;;;5062145;28;20434;-63
2021/10/26 05:34:38;;;;;;;19.33;5.88;;;9.30;99.90;;;;;;5065126;28;20025;-62
2021/10/26 05:37:05;;;;;;;16.48;5.68;;;9.30;99.90;;;;;;5058369;28;20027;-62
2021/10/26 05:39:32;;;;;;;27.40;6.82;;;9.30;99.90;;;;;;5058749;28;20044;-64
2021/10/26 05:41:58;;;;;;;16.60;6.45;;;9.30;99.90;;;;;;5064957;28;20145;-62
2021/10/26 05:44:24;;;;;;;20.60;7.75;;;9.30;99.90;;;;;;5065699;28;20021;-63
2021/10/26 05:46:50;;;;;;;18.17;6.28;;;9.30;99.90;;;;;;5064613;28;20108;-63
2021/10/26 05:49:16;;;;;;;22.73;5.88;;;9.30;99.90;;;;;;5056311;28;20032;-62
2021/10/26 05:51:41;;;;;;;21.40;5.82;;;9.30;99.90;;;;;;5063448;28;20490;-62
2021/10/26 05:54:07;;;;;;;18.80;5.90;;;9.40;99.90;;;;;;5060023;28;20028;-63
2021/10/26 05:56:33;;;;;;;19.05;5.90;;;9.40;99.90;;;;;;5060070;28;20047;-61
2021/10/26 05:58:59;;;;;;;21.02;6.65;;;9.40;99.90;;;;;;5037703;28;20525;-62
2021/10/26 06:01:25;;;;;;;25.25;10.05;;;9.40;99.90;;;;;;5043519;28;20103;-61
2021/10/26 06:03:51;;;;;;;23.88;6.20;;;9.40;99.90;;;;;;5046548;28;20041;-62
2021/10/26 06:06:17;;;;;;;23.25;7.50;;;9.40;99.90;;;;;;5040067;28;20032;-62
2021/10/26 06:08:43;;;;;;;23.75;6.35;;;9.40;99.90;;;;;;5033168;28;20041;-63
2021/10/26 06:11:11;;;;;;;19.27;6.13;;;9.40;99.90;;;;;;5041999;28;20116;-63
2021/10/26 06:13:44;;;;;;;14.77;6.10;;;9.50;99.90;;;;;;5037578;28;20053;-62
2021/10/26 06:16:10;;;;;;;20.08;6.07;;;9.50;99.90;;;;;;5042610;28;20029;-62
2021/10/26 06:18:36;;;;;;;14.07;5.85;;;9.50;99.90;;;;;;5046832;28;20482;-63
2021/10/26 06:21:03;;;;;;;15.25;5.38;;;9.40;99.90;;;;;;5039023;28;20041;-63
2021/10/26 06:23:32;;;;;;;17.95;6.30;;;9.50;99.90;;;;;;5039426;28;20075;-63
2021/10/26 06:26:00;;;;;;;19.92;5.47;;;9.50;99.90;;;;;;5042603;28;20037;-61
2021/10/26 06:28:27;;;;;;;13.98;5.13;;;9.50;99.90;;;;;;5046889;28;20065;-63
2021/10/26 06:30:52;;;;;;;20.70;5.78;;;9.50;99.90;;;;;;5043269;28;20107;-62
2021/10/26 06:33:18;;;;;;;18.52;5.57;;;9.60;99.90;;;;;;5018899;28;20116;-63
2021/10/26 06:35:45;;;;;;;14.25;5.10;;;9.60;99.90;;;;;;5043739;28;20029;-63
2021/10/26 06:38:10;;;;;;;18.33;6.43;;;9.60;99.90;;;;;;5048215;28;20036;-64
2021/10/26 06:40:36;;;;;;;23.60;5.78;;;9.70;99.90;;;;;;5046995;28;20394;-62
2021/10/26 06:43:02;;;;;;;18.60;5.95;;;9.70;99.90;;;;;;5039542;28;20104;-61
2021/10/26 06:45:28;;;;;;;18.83;5.93;;;9.80;99.90;;;;;;5043241;28;20025;-64
2021/10/26 06:47:54;;;;;;;21.10;5.63;;;9.80;99.90;;;;;;5042463;28;20037;-62
2021/10/26 06:50:20;;;;;;;20.55;5.47;;;9.80;99.90;;;;;;5037726;28;20087;-62
2021/10/26 06:52:46;;;;;;;17.67;5.50;;;9.90;99.90;;;;;;5042648;28;20390;-64
2021/10/26 06:55:18;;;;;;;17.50;6.28;;;9.90;99.90;;;;;;5042634;28;20131;-64
2021/10/26 06:57:45;;;;;;;21.73;5.78;;;9.90;99.90;;;;;;5049080;28;20090;-63
2021/10/26 07:00:12;;;;;;;23.27;8.18;;;9.90;99.90;;;;;;5057533;28;20045;-63
2021/10/26 07:02:50;;;;;;;18.27;5.57;;;9.90;99.90;;;;;;5071712;28;20033;-63
2021/10/26 07:05:21;;;;;;;16.33;5.40;;;9.90;99.90;;;;;;5065142;28;20025;-62
2021/10/26 07:07:47;;;;;;;19.65;5.13;;;9.90;99.90;;;;;;5052900;28;20112;-62
2021/10/26 07:10:13;;;;;;;18.73;5.18;;;10.00;99.90;;;;;;5058670;28;20553;-62
2021/10/26 07:12:44;;;;;;;21.33;5.82;;;10.00;99.90;;;;;;5054996;28;20063;-63
2021/10/26 07:15:14;;;;;;;16.00;5.00;;;10.00;99.90;;;;;;5060581;28;20048;-63
2021/10/26 07:17:42;;;;;;;16.42;5.20;;;10.00;99.90;;;;;;5064600;28;20029;-62
2021/10/26 07:22:34;;;;;;;24.63;6.07;;;10.10;99.90;;;;;;5063481;28;20036;-63
2021/10/26 07:25:05;;;;;;;16.67;5.20;;;10.20;99.90;;;;;;5065514;28;20025;-61
2021/10/26 07:27:31;;;;;;;21.02;7.90;;;10.20;99.90;;;;;;5069593;28;20040;-61
2021/10/26 07:29:57;;;;;;;28.13;6.65;;;10.20;99.90;;;;;;5066819;28;20029;-61
2021/10/26 07:32:23;;;;;;;22.92;6.90;;;10.20;99.90;;;;;;5065856;28;20029;-62
2021/10/26 07:34:49;;;;;;;21.73;7.03;;;10.30;99.90;;;;;;5062732;28;20412;-62
2021/10/26 07:37:18;;;;;;;20.88;6.90;;;10.30;99.90;;;;;;5059621;28;20414;-62
2021/10/26 07:39:48;;;;;;;18.60;7.18;;;10.30;99.90;;;;;;5067645;28;20071;-60
2021/10/26 07:42:15;;;;;;;22.13;7.47;;;10.40;99.90;;;;;;5068503;28;20032;-63
2021/10/26 07:44:43;;;;;;;17.00;7.60;;;10.40;99.90;;;;;;5062124;28;20390;-61
2021/10/26 07:47:09;;;;;;;20.05;7.47;;;10.40;99.90;;;;;;5067137;28;20059;-66
2021/10/26 07:49:35;;;;;;;22.45;7.57;;;10.30;99.90;;;;;;5067204;28;20020;-61
2021/10/26 07:52:05;;;;;;;19.55;8.07;;;10.40;99.90;;;;;;5065226;28;20363;-62
2021/10/26 07:54:31;;;;;;;23.92;9.05;;;10.40;99.90;;;;;;5065192;28;20017;-60
2021/10/26 07:56:57;;;;;;;25.25;9.68;;;10.40;99.90;;;;;;5061431;28;20099;-62
2021/10/26 07:59:23;;;;;;;25.75;9.60;;;10.50;99.90;;;;;;5045362;28;20071;-61
2021/10/26 08:01:50;;;;;;;24.75;10.95;;;10.50;99.90;;;;;;5045042;28;20029;-61
2021/10/26 08:04:16;;;;;;;21.50;9.63;;;10.60;99.90;;;;;;5046720;28;20035;-62
2021/10/26 08:06:45;;;;;;;19.55;9.35;;;10.60;99.90;;;;;;5042071;28;20752;-62
2021/10/26 08:09:12;;;;;;;24.27;10.25;;;10.60;99.90;;;;;;5039698;28;20041;-63
2021/10/26 08:11:38;;;;;;;23.05;9.70;;;10.70;99.90;;;;;;5034036;28;20462;-60
2021/10/26 08:14:04;;;;;;;27.00;10.07;;;10.70;99.90;;;;;;5035221;28;20121;-61
2021/10/26 08:16:30;;;;;;;33.67;9.98;;;10.70;99.90;;;;;;5033120;28;20487;-60
2021/10/26 08:18:57;;;;;;;18.23;9.38;;;10.80;99.90;;;;;;5045703;28;20553;-63
2021/10/26 08:21:22;;;;;;;16.17;9.30;;;10.80;99.90;;;;;;5032551;28;20029;-62
2021/10/26 08:23:50;;;;;;;18.17;9.05;;;10.90;99.90;;;;;;5031847;28;20037;-60
2021/10/26 08:26:59;;;;;;;25.90;9.75;;;10.90;99.90;;;;;;5032849;28;20107;-61
2021/10/26 08:29:10;;;;;;;14.85;8.52;;;10.90;99.90;;;;;;5023498;28;20045;-60
2021/10/26 08:31:58;;;;;;;20.10;8.25;;;10.90;99.90;;;;;;5033128;28;20084;-61
2021/10/26 08:36:56;;;;;;;18.02;9.55;;;11.00;99.90;;;;;;5039313;28;20033;-61
2021/10/26 08:39:21;;;;;;;24.98;9.80;;;11.10;99.90;;;;;;5042465;28;20071;-61
2021/10/26 08:41:49;;;;;;;17.40;8.40;;;11.10;99.90;;;;;;5032425;28;20472;-61
2021/10/26 08:44:16;;;;;;;18.27;8.63;;;11.20;99.90;;;;;;5039943;28;20489;-60
2021/10/26 08:46:45;;;;;;;16.70;7.82;;;11.30;99.90;;;;;;5037732;28;20067;-62
2021/10/26 08:49:13;;;;;;;31.50;12.75;;;11.40;99.90;;;;;;5031310;28;20493;-61
2021/10/26 08:51:43;;;;;;;20.33;8.57;;;11.50;99.90;;;;;;5032467;28;20036;-62
2021/10/26 08:54:09;;;;;;;14.68;7.00;;;11.70;99.90;;;;;;5031466;28;20041;-60
2021/10/26 08:56:34;;;;;;;16.40;7.10;;;11.70;99.90;;;;;;5032386;28;20029;-61
2021/10/26 08:59:00;;;;;;;16.38;6.97;;;11.70;99.90;;;;;;5050827;28;20123;-61
2021/10/26 09:01:26;;;;;;;16.58;7.32;;;11.80;99.90;;;;;;5051510;28;20026;-63
2021/10/26 09:04:06;;;;;;;27.30;7.63;;;11.70;99.90;;;;;;5051069;28;20124;-62
2021/10/26 09:06:45;;;;;;;12.52;6.78;;;11.80;99.90;;;;;;5055436;28;20086;-62
2021/10/26 09:09:15;;;;;;;10.55;5.60;;;11.90;99.90;;;;;;5039141;28;20106;-60
2021/10/26 09:17:28;;;;;;;25.80;5.70;;;12.00;99.90;;;;;;5051608;28;20059;-61
2021/10/26 09:19:55;;;;;;;14.50;6.05;;;12.00;99.90;;;;;;5054038;28;20094;-62
2021/10/26 09:22:21;;;;;;;17.95;4.57;;;12.10;99.90;;;;;;5062146;28;20067;-61
2021/10/26 09:25:03;;;;;;;20.65;4.57;;;12.20;99.90;;;;;;5050780;28;20056;-60
2021/10/26 09:27:29;;;;;;;13.23;4.28;;;12.20;99.90;;;;;;5033398;28;20036;-62
2021/10/26 09:29:58;;;;;;;8.23;4.15;;;12.30;99.90;;;;;;5050744;28;20051;-62
2021/10/26 09:32:35;;;;;;;15.27;4.68;;;12.30;99.90;;;;;;5064270;28;20048;-62
2021/10/26 09:35:07;;;;;;;18.33;4.43;;;12.40;99.90;;;;;;5051353;28;20056;-62
2021/10/26 09:37:49;;;;;;;14.45;4.85;;;12.50;99.90;;;;;;5051396;28;20114;-62
2021/10/26 09:40:15;;;;;;;14.80;4.25;;;12.50;99.90;;;;;;5054508;28;20025;-61
2021/10/26 09:42:44;;;;;;;19.00;4.18;;;12.60;99.90;;;;;;5052948;28;20032;-62
2021/10/26 09:45:31;;;;;;;13.88;3.80;;;12.70;99.90;;;;;;5058755;28;20048;-62
2021/10/26 09:48:06;;;;;;;12.68;4.07;;;12.80;99.90;;;;;;5052281;28;20039;-61
2021/10/26 09:50:35;;;;;;;9.35;4.00;;;12.80;99.90;;;;;;5058514;28;20434;-63
2021/10/26 09:53:05;;;;;;;16.70;4.05;;;12.90;99.90;;;;;;5050595;28;20033;-63
2021/10/26 09:55:40;;;;;;;20.65;4.13;;;12.90;99.90;;;;;;5033318;28;20400;-61
2021/10/26 09:58:13;;;;;;;11.43;3.42;;;12.90;99.90;;;;;;5049718;28;20449;-63
2021/10/26 10:00:42;;;;;;;9.05;2.75;;;13.00;99.90;;;;;;5055952;28;20032;-62
2021/10/26 10:03:21;;;;;;;11.35;3.10;;;13.00;99.90;;;;;;5051345;28;20025;-62
2021/10/26 10:06:01;;;;;;;23.20;3.63;;;13.00;99.90;;;;;;5050680;28;20445;-60
2021/10/26 10:08:34;;;;;;;15.63;3.53;;;13.10;99.90;;;;;;5049999;28;20124;-63
2021/10/26 10:11:10;;;;;;;22.38;3.60;;;13.20;99.90;;;;;;5051343;28;20033;-63
2021/10/26 10:13:39;;;;;;;27.30;4.03;;;13.30;99.90;;;;;;5058047;28;20020;-62
2021/10/26 10:16:10;;;;;;;13.50;2.63;;;13.30;99.90;;;;;;5055984;28;20033;-61
2021/10/26 10:18:36;;;;;;;10.10;3.08;;;13.40;99.90;;;;;;5050168;28;20496;-63
2021/10/26 10:21:03;;;;;;;27.95;3.88;;;13.40;99.90;;;;;;5051761;28;20060;-61
2021/10/26 10:23:31;;;;;;;13.98;3.05;;;13.50;99.90;;;;;;5049871;28;20025;-61
2021/10/26 10:25:57;;;;;;;11.05;2.55;;;13.60;99.90;;;;;;5050988;28;20033;-62
2021/10/26 10:28:30;;;;;;;13.80;3.05;;;13.70;99.90;;;;;;5050841;28;20605;-62
2021/10/26 10:31:00;;;;;;;12.73;2.72;;;13.80;99.90;;;;;;5050653;28;20025;-61
2021/10/26 10:33:28;;;;;;;15.88;2.50;;;13.80;99.90;;;;;;5050777;28;20032;-62
2021/10/26 10:35:59;;;;;;;13.25;3.30;;;13.90;99.90;;;;;;5050534;28;20074;-61
2021/10/26 10:38:32;;;;;;;9.77;2.35;;;14.00;99.90;;;;;;5049747;28;20055;-62
2021/10/26 10:41:24;;;;;;;9.70;2.47;;;14.10;99.90;;;;;;5050904;28;20327;-61
2021/10/26 10:43:51;;;;;;;18.02;3.28;;;14.20;99.90;;;;;;5049484;28;20021;-62
2021/10/26 10:46:51;;;;;;;9.00;2.20;;;14.20;99.90;;;;;;5050590;28;20033;-62
2021/10/26 10:49:20;;;;;;;13.30;2.40;;;14.30;99.90;;;;;;5049783;28;20029;-63
2021/10/26 10:52:00;;;;;;;21.67;2.67;;;14.40;99.90;;;;;;5055111;28;20513;-62
2021/10/26 10:54:54;;;;;;;11.48;2.35;;;14.30;99.90;;;;;;5048298;28;20036;-63
2021/10/26 10:57:29;;;;;;;10.38;2.15;;;14.40;99.90;;;;;;5057016;28;20094;-62
2021/10/26 10:59:57;;;;;;;18.95;3.00;;;14.40;99.90;;;;;;5053487;28;20029;-62
2021/10/26 11:02:27;;;;;;;12.10;2.63;;;14.50;99.90;;;;;;5054362;28;20052;-62
2021/10/26 11:04:54;;;;;;;12.50;2.50;;;14.50;99.90;;;;;;5053434;28;20052;-61
2021/10/26 11:07:42;;;;;;;12.40;2.58;;;14.60;99.90;;;;;;5057665;28;20052;-62
2021/10/26 11:10:15;;;;;;;14.50;3.33;;;14.60;99.90;;;;;;5052973;28;20137;-62
2021/10/26 11:12:43;;;;;;;13.07;2.60;;;14.70;99.90;;;;;;5054139;28;20032;-61
2021/10/26 11:15:11;;;;;;;17.70;2.25;;;14.70;99.90;;;;;;5052996;28;20112;-61
2021/10/26 11:17:40;;;;;;;12.05;2.30;;;14.70;99.90;;;;;;5060861;28;20039;-62
2021/10/26 11:20:11;;;;;;;12.32;2.60;;;14.60;99.90;;;;;;5070941;28;20040;-61
2021/10/26 11:22:52;;;;;;;21.25;3.60;;;14.70;99.90;;;;;;5066443;28;20029;-62
2021/10/26 11:25:27;;;;;;;18.80;2.80;;;14.70;99.90;;;;;;5053791;28;20410;-63
2021/10/26 11:27:54;;;;;;;;;;;14.70;99.90;;;;;;5054927;28;20112;-63
2021/10/26 11:30:32;;;;;;;13.30;2.58;;;14.80;99.90;;;;;;5052930;28;19908;-62
2021/10/26 11:33:13;;;;;;;14.90;2.80;;;14.80;99.90;;;;;;5061806;28;20509;-62
2021/10/26 11:35:57;;;;;;;17.63;2.47;;;14.90;99.90;;;;;;5052517;28;20042;-63
2021/10/26 11:38:24;;;;;;;13.50;2.97;;;14.90;99.90;;;;;;5053478;28;20033;-61
2021/10/26 11:41:08;;;;;;;10.70;2.63;;;15.00;99.90;;;;;;5060980;28;20035;-63
2021/10/26 11:43:53;;;;;;;14.63;3.08;;;15.10;99.90;;;;;;5054566;28;20044;-61
2021/10/26 11:46:25;;;;;;;15.13;2.70;;;15.20;99.90;;;;;;5067249;28;20425;-61
2021/10/26 11:48:58;;;;;;;17.25;2.70;;;15.20;99.90;;;;;;5053049;28;20025;-64
2021/10/26 11:51:35;;;;;;;17.40;3.85;;;15.20;99.90;;;;;;5053386;28;20052;-62
2021/10/26 11:54:24;;;;;;;14.80;2.90;;;15.30;99.90;;;;;;5052201;28;20098;-63
2021/10/26 11:56:55;;;;;;;10.05;2.63;;;15.40;99.90;;;;;;5053280;28;20040;-62
2021/10/26 11:59:26;;;;;;;14.70;2.78;;;15.50;99.90;;;;;;5052113;28;20033;-62
2021/10/26 12:01:57;;;;;;;14.00;2.80;;;15.50;99.90;;;;;;5052752;28;20108;-62
2021/10/26 12:04:29;;;;;;;12.52;2.72;;;15.50;99.90;;;;;;5063258;28;20040;-62
2021/10/26 12:07:00;;;;;;;20.27;2.80;;;15.60;99.90;;;;;;5053405;28;20064;-62
2021/10/26 12:09:28;;;;;;;12.25;2.80;;;15.60;99.90;;;;;;5051384;28;20477;-62
2021/10/26 12:11:57;;;;;;;23.92;3.75;;;15.70;99.90;;;;;;5052777;28;20064;-62
2021/10/26 12:14:31;;;;;;;11.95;2.58;;;15.80;99.90;;;;;;5053800;28;20048;-62
2021/10/26 12:17:09;;;;;;;14.98;2.85;;;16.00;99.90;;;;;;5055670;28;20032;-61
2021/10/26 12:19:39;;;;;;;23.60;3.47;;;16.00;99.90;;;;;;5051560;28;20044;-61
2021/10/26 12:22:10;;;;;;;13.18;2.47;;;16.10;99.90;;;;;;5052424;28;20029;-62
2021/10/26 12:24:36;;;;;;;9.85;2.65;;;16.10;99.90;;;;;;5051991;28;20048;-61
2021/10/26 12:27:04;;;;;;;14.10;3.08;;;16.10;99.90;;;;;;5053752;28;20033;-62
2021/10/26 12:29:32;;;;;;;14.57;5.85;;;16.10;99.90;;;;;;5062799;28;20055;-62
2021/10/26 12:31:59;;;;;;;9.77;2.28;;;16.10;99.90;;;;;;5052706;28;20112;-62
2021/10/26 12:34:25;;;;;;;11.52;2.60;;;16.10;99.90;;;;;;5053094;28;20765;-62
2021/10/26 12:36:51;;;;;;;13.05;2.78;;;16.10;99.90;;;;;;5052499;28;20036;-62
2021/10/26 12:39:24;;;;;;;18.20;2.83;;;16.20;99.90;;;;;;5051271;28;20036;-63
2021/10/26 12:41:50;;;;;;;16.13;2.90;;;16.20;99.90;;;;;;5058008;28;20425;-62
2021/10/26 12:44:18;;;;;;;13.05;2.42;;;16.20;99.90;;;;;;5059852;28;20025;-63
2021/10/26 12:46:44;;;;;;;13.95;2.60;;;16.20;99.90;;;;;;5065314;28;20186;-63
2021/10/26 12:49:15;;;;;;;11.70;2.63;;;16.20;99.90;;;;;;5055780;28;20462;-62
2021/10/26 12:51:43;;;;;;;16.40;3.00;;;16.20;99.90;;;;;;5053349;28;20021;-62
2021/10/26 12:54:19;;;;;;;12.77;3.25;;;16.20;99.90;;;;;;5051610;28;20542;-62
2021/10/26 12:57:00;;;;;;;16.38;3.30;;;16.20;99.90;;;;;;5051649;28;20106;-63
2021/10/26 12:59:28;;;;;;;8.50;2.15;;;16.30;99.90;;;;;;5050882;28;20498;-62